createdAt,value
2018-04-15T00:01:55.601Z,2.63
2018-04-15T00:04:23.839Z,2.70
2018-04-15T00:06:52.081Z,2.93
2018-04-15T00:09:20.317Z,2.53
2018-04-15T00:11:48.555Z,2.70
2018-04-15T00:14:16.798Z,3.20
2018-04-15T00:16:45.063Z,2.67
2018-04-15T00:19:13.344Z,2.83
2018-04-15T00:21:41.571Z,2.80
2018-04-15T00:24:09.831Z,2.63
2018-04-15T00:26:38.061Z,2.93
2018-04-15T00:29:07.071Z,2.80
2018-04-15T00:31:36.810Z,3.07
2018-04-15T00:34:05.866Z,2.53
2018-04-15T00:36:34.103Z,2.47
2018-04-15T00:39:03.122Z,2.87
2018-04-15T00:41:31.388Z,3.10
2018-04-15T00:44:00.400Z,2.30
2018-04-15T00:46:29.390Z,2.33
2018-04-15T00:48:58.409Z,2.40
2018-04-15T00:51:27.414Z,2.43
2018-04-15T00:54:13.463Z,3.00
2018-04-15T00:56:41.731Z,3.53
2018-04-15T00:59:09.995Z,4.83
2018-04-15T01:01:39.011Z,5.17
2018-04-15T01:04:08.014Z,5.10
2018-04-15T01:06:37.006Z,4.77
2018-04-15T01:09:06.172Z,4.83
2018-04-15T01:11:34.425Z,4.90
2018-04-15T01:14:03.443Z,4.63
2018-04-15T01:16:31.696Z,4.43
2018-04-15T01:18:59.946Z,4.73
2018-04-15T01:21:28.167Z,4.00
2018-04-15T01:23:56.438Z,3.93
2018-04-15T01:26:24.697Z,3.40
2018-04-15T01:28:52.971Z,3.33
2018-04-15T01:31:21.272Z,3.17
2018-04-15T01:33:49.500Z,2.87
2018-04-15T01:36:18.643Z,3.10
2018-04-15T01:38:47.648Z,2.60
2018-04-15T01:41:16.657Z,2.93
2018-04-15T01:43:45.650Z,2.33
2018-04-15T01:46:13.899Z,2.63
2018-04-15T01:48:42.156Z,2.50
2018-04-15T01:51:10.437Z,2.50
2018-04-15T01:53:38.668Z,2.37
2018-04-15T01:56:07.077Z,2.70
2018-04-15T01:58:35.386Z,3.10
2018-04-15T02:01:04.986Z,3.10
2018-04-15T02:03:33.247Z,3.27
2018-04-15T02:06:01.492Z,3.23
2018-04-15T02:08:30.491Z,3.33
2018-04-15T02:10:59.517Z,3.07
2018-04-15T02:13:28.515Z,2.37
2018-04-15T02:15:57.534Z,3.07
2018-04-15T02:18:25.774Z,2.70
2018-04-15T02:20:54.006Z,2.40
2018-04-15T02:23:22.265Z,2.63
2018-04-15T02:25:50.521Z,2.37
2018-04-15T02:28:18.750Z,2.70
2018-04-15T02:30:46.998Z,3.20
2018-04-15T02:33:15.264Z,3.70
2018-04-15T02:35:43.499Z,3.20
2018-04-15T02:38:11.738Z,3.50
2018-04-15T02:40:40.012Z,3.57
2018-04-15T02:43:08.254Z,4.03
2018-04-15T02:45:37.266Z,4.10
2018-04-15T02:48:05.499Z,3.80
2018-04-15T02:50:33.774Z,4.07
2018-04-15T02:53:02.791Z,4.10
2018-04-15T02:55:31.808Z,3.93
2018-04-15T02:58:00.062Z,4.17
2018-04-15T03:00:28.315Z,4.00
2018-04-15T03:02:56.633Z,3.40
2018-04-15T03:05:24.880Z,4.27
2018-04-15T03:07:53.110Z,3.80
2018-04-15T03:10:21.351Z,3.50
2018-04-15T03:12:49.606Z,3.43
2018-04-15T03:15:17.833Z,3.60
2018-04-15T03:17:46.089Z,3.43
2018-04-15T03:20:15.089Z,3.40
2018-04-15T03:22:44.093Z,3.40
2018-04-15T03:25:13.078Z,3.33
2018-04-15T03:27:42.120Z,2.97
2018-04-15T03:30:11.137Z,3.07
2018-04-15T03:32:39.387Z,2.93
2018-04-15T03:35:07.624Z,3.47
2018-04-15T03:37:35.873Z,2.77
2018-04-15T03:40:04.877Z,2.73
2018-04-15T03:42:33.114Z,2.50
2018-04-15T03:45:01.339Z,2.67
2018-04-15T03:47:29.604Z,2.53
2018-04-15T03:49:57.830Z,2.70
2018-04-15T03:52:26.880Z,3.00
2018-04-15T03:54:55.153Z,3.13
2018-04-15T03:57:23.389Z,3.33
2018-04-15T03:59:51.625Z,3.10
2018-04-15T04:02:19.879Z,3.20
2018-04-15T04:04:48.126Z,4.10
2018-04-15T04:07:16.387Z,4.20
2018-04-15T04:09:45.400Z,3.60
2018-04-15T04:12:13.653Z,4.37
2018-04-15T04:14:41.880Z,4.00
2018-04-15T04:17:10.162Z,4.10
2018-04-15T04:19:56.690Z,3.80
2018-04-15T04:22:42.792Z,3.73
2018-04-15T04:28:18.184Z,4.00
2018-04-15T04:30:46.408Z,4.17
2018-04-15T04:33:14.647Z,4.17
2018-04-15T04:35:43.660Z,3.90
2018-04-15T04:38:12.683Z,4.40
2018-04-15T04:40:40.932Z,4.00
2018-04-15T04:43:09.184Z,3.70
2018-04-15T04:45:37.415Z,3.50
2018-04-15T04:48:06.429Z,3.63
2018-04-15T04:50:34.657Z,3.50
2018-04-15T04:53:02.908Z,3.77
2018-04-15T04:55:31.889Z,3.00
2018-04-15T04:58:00.907Z,2.60
2018-04-15T05:00:29.933Z,3.07
2018-04-15T05:02:58.181Z,3.50
2018-04-15T05:05:26.503Z,3.20
2018-04-15T05:07:55.502Z,3.13
2018-04-15T05:10:24.516Z,3.60
2018-04-15T05:12:52.768Z,3.20
2018-04-15T05:15:20.992Z,2.97
2018-04-15T05:17:49.234Z,3.27
2018-04-15T05:20:17.486Z,3.37
2018-04-15T05:22:45.718Z,3.17
2018-04-15T05:25:14.025Z,3.13
2018-04-15T05:27:42.255Z,3.00
2018-04-15T05:30:10.508Z,3.37
2018-04-15T05:32:38.734Z,3.27
2018-04-15T05:35:06.993Z,3.40
2018-04-15T05:37:36.049Z,3.30
2018-04-15T05:40:06.037Z,3.20
2018-04-15T05:42:35.855Z,3.60
2018-04-15T05:45:04.848Z,3.10
2018-04-15T05:47:34.477Z,3.20
2018-04-15T05:50:02.711Z,3.60
2018-04-15T05:52:30.969Z,3.60
2018-04-15T05:54:59.237Z,3.03
2018-04-15T05:57:28.253Z,3.03
2018-04-15T05:59:57.876Z,3.27
2018-04-15T06:02:26.880Z,3.40
2018-04-15T06:04:55.897Z,3.40
2018-04-15T06:07:24.140Z,2.90
2018-04-15T06:09:52.398Z,3.60
2018-04-15T06:12:20.643Z,3.40
2018-04-15T06:14:49.774Z,3.50
2018-04-15T06:17:18.011Z,3.60
2018-04-15T06:19:46.339Z,3.87
2018-04-15T06:22:15.367Z,3.50
2018-04-15T06:24:43.638Z,3.60
2018-04-15T06:27:12.687Z,3.30
2018-04-15T06:29:40.966Z,3.23
2018-04-15T06:32:09.216Z,3.70
2018-04-15T06:34:38.269Z,3.27
2018-04-15T06:37:06.534Z,3.00
2018-04-15T06:39:34.827Z,3.37
2018-04-15T06:42:03.071Z,3.27
2018-04-15T06:44:31.337Z,3.10
2018-04-15T06:46:59.572Z,3.43
2018-04-15T06:49:27.826Z,2.90
2018-04-15T06:51:56.080Z,3.27
2018-04-15T06:54:24.352Z,3.50
2018-04-15T06:56:53.384Z,3.50
2018-04-15T06:59:22.383Z,3.70
2018-04-15T07:01:50.661Z,3.37
2018-04-15T07:04:18.891Z,3.50
2018-04-15T07:06:47.149Z,3.80
2018-04-15T07:09:15.382Z,3.63
2018-04-15T07:11:43.686Z,4.00
2018-04-15T07:14:11.901Z,4.10
2018-04-15T07:16:40.170Z,3.70
2018-04-15T07:19:09.336Z,3.90
2018-04-15T07:21:37.628Z,3.70
2018-04-15T07:24:05.868Z,4.20
2018-04-15T07:26:34.110Z,4.17
2018-04-15T07:29:02.364Z,4.40
2018-04-15T07:31:30.647Z,4.33
2018-04-15T07:33:58.870Z,4.00
2018-04-15T07:36:27.201Z,3.97
2018-04-15T07:38:55.501Z,4.00
2018-04-15T07:41:23.760Z,3.57
2018-04-15T07:43:51.995Z,3.93
2018-04-15T07:46:20.251Z,3.90
2018-04-15T07:48:49.258Z,3.80
2018-04-15T07:51:18.284Z,4.50
2018-04-15T07:53:46.526Z,4.20
2018-04-15T07:56:14.822Z,4.20
2018-04-15T07:58:43.031Z,4.13
2018-04-15T08:01:12.653Z,4.20
2018-04-15T08:03:41.723Z,3.97
2018-04-15T08:06:09.966Z,3.70
2018-04-15T08:08:38.224Z,4.13
2018-04-15T08:11:08.500Z,3.87
2018-04-15T08:13:36.775Z,3.97
2018-04-15T08:16:05.020Z,3.73
2018-04-15T08:18:33.273Z,3.80
2018-04-15T08:21:01.534Z,3.80
2018-04-15T08:23:30.562Z,3.57
2018-04-15T08:25:58.819Z,3.90
2018-04-15T08:28:27.855Z,3.83
2018-04-15T08:30:56.111Z,4.30
2018-04-15T08:33:25.137Z,4.10
2018-04-15T08:35:53.380Z,4.33
2018-04-15T08:38:22.435Z,4.33
2018-04-15T08:40:50.701Z,4.00
2018-04-15T08:43:19.756Z,3.57
2018-04-15T08:45:47.999Z,4.40
2018-04-15T08:48:17.015Z,4.10
2018-04-15T08:50:46.043Z,4.17
2018-04-15T08:53:14.345Z,4.37
2018-04-15T08:55:42.586Z,4.67
2018-04-15T08:58:11.618Z,4.37
2018-04-15T09:00:39.885Z,4.00
2018-04-15T09:03:08.140Z,4.63
2018-04-15T09:05:36.436Z,4.07
2018-04-15T09:08:05.451Z,4.50
2018-04-15T09:10:33.697Z,4.90
2018-04-15T09:13:01.951Z,4.57
2018-04-15T09:15:31.708Z,4.37
2018-04-15T09:17:59.987Z,4.60
2018-04-15T09:20:28.293Z,4.60
2018-04-15T09:22:56.544Z,4.10
2018-04-15T09:25:25.547Z,4.43
2018-04-15T09:27:54.551Z,4.77
2018-04-15T09:30:23.566Z,4.77
2018-04-15T09:32:51.874Z,4.47
2018-04-15T09:35:20.180Z,5.17
2018-04-15T09:37:48.432Z,5.10
2018-04-15T09:40:16.693Z,4.83
2018-04-15T09:42:44.982Z,4.90
2018-04-15T09:45:13.286Z,4.43
2018-04-15T09:47:42.420Z,5.20
2018-04-15T09:50:10.747Z,4.90
2018-04-15T09:52:38.996Z,4.10
2018-04-15T09:55:07.246Z,4.70
2018-04-15T09:57:35.496Z,5.17
2018-04-15T10:00:03.799Z,4.90
2018-04-15T10:02:32.048Z,5.27
2018-04-15T10:05:01.116Z,5.00
2018-04-15T10:07:29.369Z,5.17
2018-04-15T10:09:57.638Z,5.40
2018-04-15T10:12:26.092Z,5.50
2018-04-15T10:14:54.347Z,5.13
2018-04-15T10:17:22.598Z,5.20
2018-04-15T10:19:50.861Z,5.60
2018-04-15T10:22:19.101Z,5.43
2018-04-15T10:24:47.365Z,5.47
2018-04-15T10:27:15.647Z,5.50
2018-04-15T10:29:44.659Z,5.37
2018-04-15T10:32:13.668Z,5.57
2018-04-15T10:34:41.919Z,5.10
2018-04-15T10:37:10.175Z,5.90
2018-04-15T10:39:38.439Z,5.43
2018-04-15T10:42:06.710Z,5.80
2018-04-15T10:44:35.735Z,6.13
2018-04-15T10:47:03.983Z,5.77
2018-04-15T10:49:32.247Z,5.83
2018-04-15T10:52:00.552Z,6.30
2018-04-15T10:54:28.822Z,6.17
2018-04-15T10:56:57.073Z,5.90
2018-04-15T10:59:26.090Z,5.83
2018-04-15T11:01:54.339Z,5.80
2018-04-15T11:04:22.614Z,5.70
2018-04-15T11:06:51.632Z,6.10
2018-04-15T11:09:19.921Z,6.37
2018-04-15T11:11:48.184Z,5.67
2018-04-15T11:14:16.434Z,6.93
2018-04-15T11:16:45.489Z,6.40
2018-04-15T11:19:13.757Z,6.30
2018-04-15T11:21:42.008Z,6.37
2018-04-15T11:24:11.023Z,6.30
2018-04-15T11:26:39.299Z,5.90
2018-04-15T11:29:07.536Z,6.13
2018-04-15T11:31:35.809Z,6.47
2018-04-15T11:34:04.055Z,6.40
2018-04-15T11:36:32.303Z,6.10
2018-04-15T11:39:00.576Z,6.63
2018-04-15T11:41:28.847Z,5.87
2018-04-15T11:43:57.123Z,6.53
2018-04-15T11:46:26.887Z,6.23
2018-04-15T11:48:55.131Z,6.40
2018-04-15T11:51:24.164Z,7.50
2018-04-15T11:53:52.394Z,6.63
2018-04-15T11:56:20.682Z,6.90
2018-04-15T11:58:49.711Z,7.30
2018-04-15T12:01:17.977Z,7.20
2018-04-15T12:03:46.230Z,7.00
2018-04-15T12:06:15.539Z,6.53
2018-04-15T12:08:43.786Z,6.80
2018-04-15T12:11:12.060Z,6.23
2018-04-15T12:13:40.323Z,6.57
2018-04-15T12:16:08.563Z,5.57
2018-04-15T12:18:36.839Z,6.77
2018-04-15T12:21:05.085Z,6.03
2018-04-15T12:23:33.343Z,6.63
2018-04-15T12:26:02.371Z,6.20
2018-04-15T12:28:30.633Z,6.47
2018-04-15T12:30:59.629Z,5.93
2018-04-15T12:33:28.652Z,6.70
2018-04-15T12:35:58.437Z,6.23
2018-04-15T12:38:27.522Z,6.43
2018-04-15T12:40:55.816Z,6.93
2018-04-15T12:43:24.799Z,6.33
2018-04-15T12:45:53.032Z,6.40
2018-04-15T12:48:21.309Z,6.03
2018-04-15T12:50:49.566Z,6.20
2018-04-15T12:53:17.842Z,7.07
2018-04-15T12:55:46.083Z,6.80
2018-04-15T12:58:14.352Z,6.57
2018-04-15T13:00:42.595Z,6.40
2018-04-15T13:03:11.636Z,7.13
2018-04-15T13:05:39.878Z,6.40
2018-04-15T13:08:08.150Z,6.37
2018-04-15T13:10:36.395Z,6.50
2018-04-15T13:13:04.661Z,5.80
2018-04-15T13:15:33.679Z,5.63
2018-04-15T13:18:02.713Z,5.90
2018-04-15T13:20:30.986Z,6.13
2018-04-15T13:22:59.230Z,6.07
2018-04-15T13:25:27.486Z,5.43
2018-04-15T13:27:56.526Z,5.57
2018-04-15T13:30:24.775Z,6.03
2018-04-15T13:32:53.038Z,5.87
2018-04-15T13:35:21.279Z,6.03
2018-04-15T13:37:49.582Z,6.27
2018-04-15T13:40:17.969Z,6.13
2018-04-15T13:42:46.153Z,6.03
2018-04-15T13:45:15.190Z,5.77
2018-04-15T13:47:44.203Z,5.90
2018-04-15T13:50:12.519Z,5.83
2018-04-15T13:52:40.775Z,5.50
2018-04-15T13:55:09.817Z,5.30
2018-04-15T13:57:38.094Z,5.60
2018-04-15T14:00:07.184Z,5.00
2018-04-15T14:02:36.224Z,5.13
2018-04-15T14:05:04.488Z,5.17
2018-04-15T14:07:32.749Z,4.93
2018-04-15T14:10:01.089Z,4.87
2018-04-15T14:12:29.416Z,5.30
2018-04-15T14:14:57.774Z,5.20
2018-04-15T14:17:26.055Z,5.17
2018-04-15T14:19:54.422Z,4.43
2018-04-15T14:22:23.456Z,5.10
2018-04-15T14:24:51.793Z,5.27
2018-04-15T14:27:20.083Z,5.83
2018-04-15T14:29:48.416Z,5.27
2018-04-15T14:32:16.639Z,4.73
2018-04-15T14:34:44.962Z,5.10
2018-04-15T14:37:14.002Z,4.97
2018-04-15T14:39:42.309Z,5.07
2018-04-15T14:42:10.580Z,4.73
2018-04-15T14:44:38.913Z,5.33
2018-04-15T14:47:07.206Z,4.77
2018-04-15T14:49:35.468Z,4.83
2018-04-15T14:52:03.785Z,4.50
2018-04-15T14:54:32.096Z,4.93
2018-04-15T14:57:01.285Z,4.43
2018-04-15T14:59:29.584Z,5.07
2018-04-15T15:01:58.633Z,4.57
2018-04-15T15:04:26.915Z,4.80
2018-04-15T15:06:55.176Z,5.30
2018-04-15T15:09:23.458Z,4.67
2018-04-15T15:11:51.748Z,5.00
2018-04-15T15:14:20.126Z,4.60
2018-04-15T15:16:48.419Z,5.00
2018-04-15T15:19:16.747Z,4.60
2018-04-15T15:21:44.941Z,4.53
2018-04-15T15:24:13.210Z,4.50
2018-04-15T15:26:42.263Z,4.87
2018-04-15T15:29:10.529Z,4.60
2018-04-15T15:31:38.816Z,3.83
2018-04-15T15:34:07.067Z,4.77
2018-04-15T15:36:35.328Z,4.87
2018-04-15T15:39:03.688Z,4.10
2018-04-15T15:41:32.035Z,4.50
2018-04-15T15:44:00.328Z,3.97
2018-04-15T15:46:28.616Z,3.97
2018-04-15T15:48:56.939Z,4.03
2018-04-15T15:51:25.968Z,4.30
2018-04-15T15:53:54.268Z,4.17
2018-04-15T15:56:22.558Z,3.73
2018-04-15T15:58:50.826Z,3.67
2018-04-15T16:01:19.147Z,4.10
2018-04-15T16:03:47.419Z,4.30
2018-04-15T16:06:15.791Z,3.27
2018-04-15T16:08:44.108Z,3.90
2018-04-15T16:11:12.377Z,3.63
2018-04-15T16:13:40.679Z,2.90
2018-04-15T16:16:08.957Z,3.13
2018-04-15T16:18:37.245Z,3.77
2018-04-15T16:21:05.528Z,3.33
2018-04-15T16:23:33.817Z,3.73
2018-04-15T16:26:02.073Z,5.33
2018-04-15T16:28:31.159Z,4.00
2018-04-15T16:30:59.449Z,3.80
2018-04-15T16:33:27.781Z,3.40
2018-04-15T16:35:56.012Z,3.63
2018-04-15T16:38:24.370Z,3.60
2018-04-15T16:40:52.686Z,4.10
2018-04-15T16:43:20.933Z,3.50
2018-04-15T16:45:49.975Z,3.20
2018-04-15T16:48:18.287Z,3.37
2018-04-15T16:50:46.580Z,3.10
2018-04-15T16:53:14.827Z,2.77
2018-04-15T16:55:43.149Z,3.73
2018-04-15T16:58:11.424Z,3.40
2018-04-15T17:00:39.726Z,3.00
2018-04-15T17:03:08.081Z,3.40
2018-04-15T17:05:37.125Z,3.30
2018-04-15T17:08:05.450Z,3.23
2018-04-15T17:10:33.858Z,3.33
2018-04-15T17:13:02.206Z,2.80
2018-04-15T17:15:30.481Z,2.80
2018-04-15T17:17:58.919Z,2.80
2018-04-15T17:20:27.984Z,3.30
2018-04-15T17:22:56.291Z,3.27
2018-04-15T17:25:24.607Z,2.97
2018-04-15T17:27:52.826Z,3.07
2018-04-15T17:30:21.064Z,3.07
2018-04-15T17:32:49.339Z,3.13
2018-04-15T17:35:17.630Z,3.40
2018-04-15T17:37:45.888Z,3.60
2018-04-15T17:40:14.201Z,3.10
2018-04-15T17:42:42.517Z,3.87
2018-04-15T17:45:10.764Z,3.30
2018-04-15T17:47:39.017Z,3.60
2018-04-15T17:50:08.076Z,3.80
2018-04-15T17:52:36.419Z,3.37
2018-04-15T17:55:05.498Z,3.23
2018-04-15T17:57:33.834Z,3.83
2018-04-15T18:00:02.218Z,3.27
2018-04-15T18:02:30.574Z,3.70
2018-04-15T18:04:58.876Z,3.40
2018-04-15T18:07:27.928Z,3.50
2018-04-15T18:09:56.214Z,3.40
2018-04-15T18:12:24.635Z,4.13
2018-04-15T18:14:52.921Z,7.50
2018-04-15T18:17:21.297Z,7.23
2018-04-15T18:19:49.574Z,28.40
2018-04-15T18:22:17.859Z,7.67
2018-04-15T18:24:46.168Z,10.60
2018-04-15T18:27:14.466Z,6.70
2018-04-15T18:29:42.771Z,10.53
2018-04-15T18:32:11.109Z,8.97
2018-04-15T18:34:40.142Z,9.17
2018-04-15T18:37:08.420Z,7.63
2018-04-15T18:39:36.719Z,4.63
2018-04-15T18:42:04.970Z,4.10
2018-04-15T18:44:33.990Z,3.20
2018-04-15T18:47:02.284Z,3.90
2018-04-15T18:49:30.606Z,3.60
2018-04-15T18:51:58.860Z,3.70
2018-04-15T18:54:27.242Z,4.13
2018-04-15T18:56:55.506Z,4.50
2018-04-15T18:59:23.775Z,5.07
2018-04-15T19:01:52.057Z,3.83
2018-04-15T19:04:20.525Z,4.30
2018-04-15T19:06:48.792Z,3.60
2018-04-15T19:09:17.914Z,3.50
2018-04-15T19:11:46.218Z,4.13
2018-04-15T19:14:14.515Z,3.90
2018-04-15T19:16:42.827Z,3.90
2018-04-15T19:19:11.874Z,4.10
2018-04-15T19:21:40.928Z,4.77
2018-04-15T19:24:10.384Z,4.43
2018-04-15T19:26:39.433Z,4.17
2018-04-15T19:29:07.703Z,4.53
2018-04-15T19:31:35.995Z,4.33
2018-04-15T19:34:04.270Z,4.40
2018-04-15T19:36:33.333Z,4.40
2018-04-15T19:39:01.636Z,4.40
2018-04-15T19:41:29.951Z,4.50
2018-04-15T19:43:58.298Z,4.87
2018-04-15T19:46:26.606Z,4.60
2018-04-15T19:48:54.851Z,4.00
2018-04-15T19:51:23.126Z,4.87
2018-04-15T19:53:51.450Z,4.70
2018-04-15T19:56:19.859Z,4.80
2018-04-15T19:58:48.105Z,4.33
2018-04-15T20:01:16.427Z,4.77
2018-04-15T20:03:44.663Z,4.40
2018-04-15T20:06:13.731Z,4.43
2018-04-15T20:08:41.978Z,4.37
2018-04-15T20:11:10.327Z,4.10
2018-04-15T20:13:38.597Z,4.30
2018-04-15T20:16:06.871Z,4.77
2018-04-15T20:18:35.178Z,4.17
2018-04-15T20:21:03.462Z,3.90
2018-04-15T20:23:31.758Z,4.30
2018-04-15T20:26:00.071Z,4.17
2018-04-15T20:28:28.356Z,4.07
2018-04-15T20:30:56.614Z,6.00
2018-04-15T20:33:24.876Z,7.50
2018-04-15T20:35:53.095Z,7.63
2018-04-15T20:38:22.365Z,6.37
2018-04-15T20:40:51.351Z,6.43
2018-04-15T20:43:20.453Z,7.80
2018-04-15T20:45:49.507Z,5.60
2018-04-15T20:48:17.774Z,4.27
2018-04-15T20:50:46.035Z,4.27
2018-04-15T20:53:14.359Z,3.93
2018-04-15T20:55:42.628Z,4.17
2018-04-15T20:58:11.676Z,4.00
2018-04-15T21:00:39.942Z,4.00
2018-04-15T21:03:08.980Z,4.50
2018-04-15T21:05:37.240Z,4.07
2018-04-15T21:08:05.518Z,4.17
2018-04-15T21:10:34.568Z,4.00
2018-04-15T21:13:02.844Z,3.60
2018-04-15T21:15:31.090Z,4.23
2018-04-15T21:18:00.176Z,4.43
2018-04-15T21:20:28.608Z,3.93
2018-04-15T21:22:57.646Z,3.93
2018-04-15T21:25:25.931Z,4.03
2018-04-15T21:27:54.207Z,4.43
2018-04-15T21:30:22.504Z,4.10
2018-04-15T21:32:50.760Z,4.43
2018-04-15T21:35:19.777Z,4.30
2018-04-15T21:37:48.810Z,3.83
2018-04-15T21:40:17.054Z,4.10
2018-04-15T21:42:45.322Z,3.93
2018-04-15T21:45:14.735Z,4.27
2018-04-15T21:47:43.088Z,4.67
2018-04-15T21:50:11.359Z,4.30
2018-04-15T21:52:39.679Z,4.10
2018-04-15T21:55:07.934Z,4.27
2018-04-15T21:57:36.956Z,3.67
2018-04-15T22:00:05.271Z,4.27
2018-04-15T22:02:33.512Z,4.20
2018-04-15T22:05:02.548Z,4.10
2018-04-15T22:07:30.799Z,4.20
2018-04-15T22:09:59.842Z,3.83
2018-04-15T22:12:28.075Z,4.07
2018-04-15T22:14:56.357Z,3.60
2018-04-15T22:17:24.602Z,3.57
2018-04-15T22:19:52.851Z,3.80
2018-04-15T22:22:21.200Z,3.47
2018-04-15T22:24:49.459Z,3.80
2018-04-15T22:27:17.707Z,4.57
2018-04-15T22:29:45.959Z,3.20
2018-04-15T22:32:14.214Z,3.80
2018-04-15T22:34:43.345Z,3.03
2018-04-15T22:37:11.585Z,2.80
2018-04-15T22:39:39.870Z,3.10
2018-04-15T22:42:08.118Z,2.90
2018-04-15T22:44:36.394Z,2.80
2018-04-15T22:47:06.164Z,3.30
2018-04-15T22:49:34.440Z,3.27
2018-04-15T22:52:02.688Z,3.23
2018-04-15T22:54:31.709Z,2.97
2018-04-15T22:57:05.352Z,3.27
2018-04-15T22:59:33.672Z,2.87
2018-04-15T23:02:01.929Z,2.70
2018-04-15T23:04:30.205Z,2.97
2018-04-15T23:06:58.454Z,3.00
2018-04-15T23:09:27.497Z,2.50
2018-04-15T23:11:55.722Z,2.67
2018-04-15T23:14:24.027Z,3.27
2018-04-15T23:16:52.258Z,2.83
2018-04-15T23:19:20.516Z,3.10
2018-04-15T23:21:49.523Z,2.90
2018-04-15T23:24:18.568Z,3.00
2018-04-15T23:26:46.803Z,2.83
2018-04-15T23:29:15.074Z,3.20
2018-04-15T23:31:43.380Z,3.07
2018-04-15T23:34:11.628Z,2.90
2018-04-15T23:36:39.886Z,3.30
2018-04-15T23:39:08.883Z,3.70
2018-04-15T23:41:37.913Z,3.30
2018-04-15T23:44:06.205Z,3.10
2018-04-15T23:46:34.457Z,2.80
2018-04-15T23:49:03.478Z,3.00
2018-04-15T23:51:32.517Z,3.13
2018-04-15T23:54:00.779Z,3.20
2018-04-15T23:56:29.290Z,3.03
2018-04-15T23:58:57.535Z,3.30
